sensor_id;sensor_type;location;lat;lon;timestamp;pressure;altitude;pressure_sealevel;temperature;humidity
26807;BME280;14380;49.910;6.792;2023-10-19T00:02:06;96856.47;;;12.86;100.00
26807;BME280;14380;49.910;6.792;2023-10-19T00:04:31;96853.59;;;13.07;100.00
26807;BME280;14380;49.910;6.792;2023-10-19T00:07:00;96855.25;;;13.08;100.00
26807;BME280;14380;49.910;6.792;2023-10-19T00:09:25;96854.69;;;13.04;100.00
26807;BME280;14380;49.910;6.792;2023-10-19T00:11:56;96849.25;;;13.06;100.00
26807;BME280;14380;49.910;6.792;2023-10-19T00:14:23;96852.25;;;13.21;100.00
26807;BME280;14380;49.910;6.792;2023-10-19T00:16:51;96856.91;;;13.09;100.00
26807;BME280;14380;49.910;6.792;2023-10-19T00:19:20;96857.69;;;13.19;100.00
26807;BME280;14380;49.910;6.792;2023-10-19T00:21:53;96851.56;;;13.19;100.00
26807;BME280;14380;49.910;6.792;2023-10-19T00:24:21;96850.41;;;13.49;100.00
26807;BME280;14380;49.910;6.792;2023-10-19T00:26:48;96848.22;;;13.63;100.00
26807;BME280;14380;49.910;6.792;2023-10-19T00:29:18;96851.00;;;13.79;100.00
26807;BME280;14380;49.910;6.792;2023-10-19T00:31:56;96844.66;;;13.90;100.00
26807;BME280;14380;49.910;6.792;2023-10-19T00:34:27;96846.28;;;14.09;100.00
26807;BME280;14380;49.910;6.792;2023-10-19T00:36:54;96853.16;;;14.20;100.00
26807;BME280;14380;49.910;6.792;2023-10-19T00:39:22;96849.16;;;14.42;100.00
26807;BME280;14380;49.910;6.792;2023-10-19T00:41:49;96847.19;;;14.79;100.00
26807;BME280;14380;49.910;6.792;2023-10-19T00:44:17;96844.13;;;14.92;100.00
26807;BME280;14380;49.910;6.792;2023-10-19T00:46:49;96833.72;;;15.24;100.00
26807;BME280;14380;49.910;6.792;2023-10-19T00:49:27;96841.25;;;15.28;100.00
26807;BME280;14380;49.910;6.792;2023-10-19T00:51:56;96838.59;;;15.37;100.00
26807;BME280;14380;49.910;6.792;2023-10-19T00:54:30;96835.81;;;15.55;100.00
26807;BME280;14380;49.910;6.792;2023-10-19T00:57:06;96835.47;;;15.74;100.00
26807;BME280;14380;49.910;6.792;2023-10-19T00:59:34;96833.88;;;15.90;100.00
26807;BME280;14380;49.910;6.792;2023-10-19T01:02:04;96825.56;;;15.93;100.00
26807;BME280;14380;49.910;6.792;2023-10-19T01:04:44;96830.88;;;15.93;100.00
26807;BME280;14380;49.910;6.792;2023-10-19T01:07:15;96827.53;;;15.91;100.00
26807;BME280;14380;49.910;6.792;2023-10-19T01:09:47;96832.09;;;15.31;100.00
26807;BME280;14380;49.910;6.792;2023-10-19T01:12:18;96830.41;;;15.13;100.00
26807;BME280;14380;49.910;6.792;2023-10-19T01:15:03;96829.81;;;14.85;100.00
26807;BME280;14380;49.910;6.792;2023-10-19T01:17:31;96827.66;;;14.89;100.00
26807;BME280;14380;49.910;6.792;2023-10-19T01:20:01;96822.03;;;14.57;100.00
26807;BME280;14380;49.910;6.792;2023-10-19T01:22:37;96827.84;;;14.61;100.00
26807;BME280;14380;49.910;6.792;2023-10-19T01:25:06;96822.78;;;14.49;100.00
26807;BME280;14380;49.910;6.792;2023-10-19T01:27:36;96831.44;;;14.25;100.00
26807;BME280;14380;49.910;6.792;2023-10-19T01:30:05;96831.19;;;14.36;100.00
26807;BME280;14380;49.910;6.792;2023-10-19T01:32:34;96821.56;;;14.09;100.00
26807;BME280;14380;49.910;6.792;2023-10-19T01:35:01;96826.25;;;14.41;100.00
26807;BME280;14380;49.910;6.792;2023-10-19T01:37:27;96823.28;;;14.71;100.00
26807;BME280;14380;49.910;6.792;2023-10-19T01:39:53;96816.63;;;15.18;100.00
26807;BME280;14380;49.910;6.792;2023-10-19T01:42:21;96812.28;;;15.17;100.00
26807;BME280;14380;49.910;6.792;2023-10-19T01:44:47;96817.13;;;15.13;100.00
26807;BME280;14380;49.910;6.792;2023-10-19T01:47:13;96806.50;;;15.30;100.00
26807;BME280;14380;49.910;6.792;2023-10-19T01:49:41;96809.47;;;15.27;100.00
26807;BME280;14380;49.910;6.792;2023-10-19T01:52:10;96802.38;;;15.36;100.00
26807;BME280;14380;49.910;6.792;2023-10-19T01:54:36;96806.06;;;15.43;100.00
26807;BME280;14380;49.910;6.792;2023-10-19T01:57:03;96809.22;;;15.80;100.00
26807;BME280;14380;49.910;6.792;2023-10-19T01:59:30;96814.88;;;15.76;100.00
26807;BME280;14380;49.910;6.792;2023-10-19T02:01:57;96802.59;;;15.92;100.00
26807;BME280;14380;49.910;6.792;2023-10-19T02:04:24;96806.44;;;15.89;100.00
26807;BME280;14380;49.910;6.792;2023-10-19T02:06:51;96804.41;;;15.83;100.00
26807;BME280;14380;49.910;6.792;2023-10-19T02:09:18;96801.44;;;15.86;100.00
26807;BME280;14380;49.910;6.792;2023-10-19T02:11:48;96797.41;;;16.07;100.00
26807;BME280;14380;49.910;6.792;2023-10-19T02:14:16;96802.56;;;16.17;100.00
26807;BME280;14380;49.910;6.792;2023-10-19T02:16:44;96797.09;;;16.02;100.00
26807;BME280;14380;49.910;6.792;2023-10-19T02:19:12;96793.91;;;16.15;100.00
26807;BME280;14380;49.910;6.792;2023-10-19T02:21:38;96793.25;;;16.13;100.00
26807;BME280;14380;49.910;6.792;2023-10-19T02:24:06;96785.22;;;16.29;100.00
26807;BME280;14380;49.910;6.792;2023-10-19T02:26:33;96791.41;;;16.22;100.00
26807;BME280;14380;49.910;6.792;2023-10-19T02:29:00;96783.91;;;16.17;100.00
26807;BME280;14380;49.910;6.792;2023-10-19T02:31:25;96760.16;;;16.07;100.00
26807;BME280;14380;49.910;6.792;2023-10-19T02:33:54;96771.94;;;16.21;100.00
26807;BME280;14380;49.910;6.792;2023-10-19T02:36:24;96777.97;;;15.98;100.00
26807;BME280;14380;49.910;6.792;2023-10-19T02:38:54;96776.59;;;16.19;100.00
26807;BME280;14380;49.910;6.792;2023-10-19T02:41:24;96775.28;;;15.73;100.00
26807;BME280;14380;49.910;6.792;2023-10-19T02:43:52;96768.13;;;15.32;100.00
26807;BME280;14380;49.910;6.792;2023-10-19T02:46:27;96768.28;;;15.39;100.00
26807;BME280;14380;49.910;6.792;2023-10-19T02:48:55;96765.47;;;15.66;100.00
26807;BME280;14380;49.910;6.792;2023-10-19T02:51:20;96765.63;;;15.31;100.00
26807;BME280;14380;49.910;6.792;2023-10-19T02:53:47;96756.66;;;15.32;100.00
26807;BME280;14380;49.910;6.792;2023-10-19T02:56:14;96755.31;;;15.28;100.00
26807;BME280;14380;49.910;6.792;2023-10-19T02:58:42;96758.31;;;15.33;100.00
26807;BME280;14380;49.910;6.792;2023-10-19T03:01:13;96755.00;;;15.31;100.00
26807;BME280;14380;49.910;6.792;2023-10-19T03:03:42;96750.69;;;15.55;100.00
26807;BME280;14380;49.910;6.792;2023-10-19T03:06:12;96754.19;;;15.72;100.00
26807;BME280;14380;49.910;6.792;2023-10-19T03:08:45;96745.19;;;15.56;100.00
26807;BME280;14380;49.910;6.792;2023-10-19T03:11:22;96747.38;;;15.53;100.00
26807;BME280;14380;49.910;6.792;2023-10-19T03:13:48;96742.69;;;15.71;100.00
26807;BME280;14380;49.910;6.792;2023-10-19T03:16:15;96743.34;;;15.82;100.00
26807;BME280;14380;49.910;6.792;2023-10-19T03:18:41;96740.88;;;15.72;100.00
26807;BME280;14380;49.910;6.792;2023-10-19T03:21:07;96729.25;;;15.65;100.00
26807;BME280;14380;49.910;6.792;2023-10-19T03:23:35;96725.25;;;15.69;100.00
26807;BME280;14380;49.910;6.792;2023-10-19T03:26:03;96729.25;;;15.56;100.00
26807;BME280;14380;49.910;6.792;2023-10-19T03:28:49;96730.75;;;15.51;100.00
26807;BME280;14380;49.910;6.792;2023-10-19T03:31:20;96725.44;;;15.51;100.00
26807;BME280;14380;49.910;6.792;2023-10-19T03:33:48;96727.41;;;15.49;100.00
26807;BME280;14380;49.910;6.792;2023-10-19T03:36:15;96724.28;;;15.45;100.00
26807;BME280;14380;49.910;6.792;2023-10-19T03:38:43;96722.78;;;15.59;100.00
26807;BME280;14380;49.910;6.792;2023-10-19T03:41:11;96716.78;;;15.65;100.00
26807;BME280;14380;49.910;6.792;2023-10-19T03:43:38;96715.13;;;15.39;100.00
26807;BME280;14380;49.910;6.792;2023-10-19T03:46:06;96711.28;;;15.83;100.00
26807;BME280;14380;49.910;6.792;2023-10-19T03:48:49;96710.25;;;15.93;100.00
26807;BME280;14380;49.910;6.792;2023-10-19T03:51:16;96706.75;;;15.84;100.00
26807;BME280;14380;49.910;6.792;2023-10-19T03:53:44;96706.28;;;15.64;100.00
26807;BME280;14380;49.910;6.792;2023-10-19T03:56:19;96707.59;;;15.93;100.00
26807;BME280;14380;49.910;6.792;2023-10-19T03:58:46;96708.22;;;16.19;100.00
26807;BME280;14380;49.910;6.792;2023-10-19T04:01:15;96710.09;;;15.86;100.00
26807;BME280;14380;49.910;6.792;2023-10-19T04:03:42;96714.06;;;16.07;100.00
26807;BME280;14380;49.910;6.792;2023-10-19T04:06:09;96704.44;;;16.05;100.00
26807;BME280;14380;49.910;6.792;2023-10-19T04:08:39;96714.56;;;16.02;100.00
26807;BME280;14380;49.910;6.792;2023-10-19T04:11:07;96710.06;;;16.11;100.00
26807;BME280;14380;49.910;6.792;2023-10-19T04:13:50;96696.25;;;16.07;100.00
26807;BME280;14380;49.910;6.792;2023-10-19T04:16:18;96701.59;;;16.07;100.00
26807;BME280;14380;49.910;6.792;2023-10-19T04:18:46;96691.03;;;16.22;100.00
26807;BME280;14380;49.910;6.792;2023-10-19T04:21:14;96689.28;;;16.06;100.00
26807;BME280;14380;49.910;6.792;2023-10-19T04:23:40;96686.25;;;16.17;100.00
26807;BME280;14380;49.910;6.792;2023-10-19T04:26:09;96686.56;;;16.23;100.00
26807;BME280;14380;49.910;6.792;2023-10-19T04:28:40;96690.22;;;16.22;100.00
26807;BME280;14380;49.910;6.792;2023-10-19T04:31:14;96693.47;;;16.00;100.00
26807;BME280;14380;49.910;6.792;2023-10-19T04:33:41;96696.13;;;15.92;100.00
26807;BME280;14380;49.910;6.792;2023-10-19T04:36:15;96694.91;;;16.19;100.00
26807;BME280;14380;49.910;6.792;2023-10-19T04:38:41;96696.78;;;16.02;100.00
26807;BME280;14380;49.910;6.792;2023-10-19T04:41:10;96702.44;;;15.99;100.00
26807;BME280;14380;49.910;6.792;2023-10-19T04:43:38;96698.72;;;16.17;100.00
26807;BME280;14380;49.910;6.792;2023-10-19T04:46:07;96699.47;;;15.94;100.00
26807;BME280;14380;49.910;6.792;2023-10-19T04:48:37;96694.72;;;16.13;100.00
26807;BME280;14380;49.910;6.792;2023-10-19T04:51:05;96700.22;;;16.19;100.00
26807;BME280;14380;49.910;6.792;2023-10-19T04:53:32;96704.03;;;16.25;100.00
26807;BME280;14380;49.910;6.792;2023-10-19T04:55:59;96692.47;;;16.01;100.00
26807;BME280;14380;49.910;6.792;2023-10-19T04:58:27;96696.25;;;16.07;100.00
26807;BME280;14380;49.910;6.792;2023-10-19T05:00:54;96696.56;;;16.12;100.00
26807;BME280;14380;49.910;6.792;2023-10-19T05:03:21;96701.53;;;16.24;100.00
26807;BME280;14380;49.910;6.792;2023-10-19T05:05:47;96700.78;;;15.98;100.00
26807;BME280;14380;49.910;6.792;2023-10-19T05:08:14;96692.59;;;16.08;100.00
26807;BME280;14380;49.910;6.792;2023-10-19T05:10:40;96696.25;;;16.15;100.00
26807;BME280;14380;49.910;6.792;2023-10-19T05:13:07;96694.72;;;16.21;100.00
26807;BME280;14380;49.910;6.792;2023-10-19T05:15:35;96698.78;;;16.40;100.00
26807;BME280;14380;49.910;6.792;2023-10-19T05:18:02;96695.09;;;16.10;100.00
26807;BME280;14380;49.910;6.792;2023-10-19T05:20:29;96692.38;;;16.26;100.00
26807;BME280;14380;49.910;6.792;2023-10-19T05:22:56;96690.78;;;16.09;100.00
26807;BME280;14380;49.910;6.792;2023-10-19T05:25:23;96697.03;;;16.24;100.00
26807;BME280;14380;49.910;6.792;2023-10-19T05:27:49;96692.38;;;16.26;100.00
26807;BME280;14380;49.910;6.792;2023-10-19T05:30:16;96699.09;;;16.05;100.00
26807;BME280;14380;49.910;6.792;2023-10-19T05:32:44;96703.44;;;15.82;100.00
26807;BME280;14380;49.910;6.792;2023-10-19T05:35:11;96689.91;;;16.16;100.00
26807;BME280;14380;49.910;6.792;2023-10-19T05:37:44;96687.28;;;16.08;100.00
26807;BME280;14380;49.910;6.792;2023-10-19T05:40:11;96689.50;;;16.36;100.00
26807;BME280;14380;49.910;6.792;2023-10-19T05:42:40;96685.88;;;16.29;100.00
26807;BME280;14380;49.910;6.792;2023-10-19T05:45:07;96686.22;;;16.26;100.00
26807;BME280;14380;49.910;6.792;2023-10-19T05:47:34;96686.91;;;16.19;100.00
26807;BME280;14380;49.910;6.792;2023-10-19T05:50:03;96689.13;;;16.08;100.00
26807;BME280;14380;49.910;6.792;2023-10-19T05:52:30;96689.06;;;16.16;100.00
26807;BME280;14380;49.910;6.792;2023-10-19T05:54:56;96696.13;;;15.84;100.00
26807;BME280;14380;49.910;6.792;2023-10-19T05:57:25;96687.84;;;15.62;100.00
26807;BME280;14380;49.910;6.792;2023-10-19T05:59:51;96686.31;;;15.76;100.00
26807;BME280;14380;49.910;6.792;2023-10-19T06:02:18;96695.31;;;15.83;100.00
26807;BME280;14380;49.910;6.792;2023-10-19T06:04:44;96696.78;;;15.77;100.00
26807;BME280;14380;49.910;6.792;2023-10-19T06:07:12;96699.44;;;15.77;100.00
26807;BME280;14380;49.910;6.792;2023-10-19T06:09:38;96696.31;;;15.57;100.00
26807;BME280;14380;49.910;6.792;2023-10-19T06:12:05;96708.63;;;15.58;100.00
26807;BME280;14380;49.910;6.792;2023-10-19T06:14:34;96705.47;;;15.55;100.00
26807;BME280;14380;49.910;6.792;2023-10-19T06:17:02;96697.16;;;15.41;100.00
26807;BME280;14380;49.910;6.792;2023-10-19T06:19:29;96703.16;;;15.43;100.00
26807;BME280;14380;49.910;6.792;2023-10-19T06:21:59;96708.63;;;15.58;100.00
26807;BME280;14380;49.910;6.792;2023-10-19T06:24:29;96692.50;;;15.35;100.00
26807;BME280;14380;49.910;6.792;2023-10-19T06:26:55;96702.31;;;15.51;100.00
26807;BME280;14380;49.910;6.792;2023-10-19T06:29:22;96701.66;;;15.41;100.00
26807;BME280;14380;49.910;6.792;2023-10-19T06:31:52;96705.00;;;15.35;100.00
26807;BME280;14380;49.910;6.792;2023-10-19T06:34:19;96695.50;;;15.49;100.00
26807;BME280;14380;49.910;6.792;2023-10-19T06:36:45;96706.47;;;15.45;100.00
26807;BME280;14380;49.910;6.792;2023-10-19T06:39:12;96705.78;;;15.68;100.00
26807;BME280;14380;49.910;6.792;2023-10-19T06:41:40;96711.47;;;15.40;100.00
26807;BME280;14380;49.910;6.792;2023-10-19T06:44:06;96715.94;;;15.56;100.00
26807;BME280;14380;49.910;6.792;2023-10-19T06:46:33;96720.09;;;15.42;100.00
26807;BME280;14380;49.910;6.792;2023-10-19T06:49:01;96722.44;;;15.37;100.00
26807;BME280;14380;49.910;6.792;2023-10-19T06:51:27;96712.97;;;15.43;100.00
26807;BME280;14380;49.910;6.792;2023-10-19T06:53:55;96710.63;;;15.56;100.00
26807;BME280;14380;49.910;6.792;2023-10-19T06:56:23;96717.44;;;15.51;100.00
26807;BME280;14380;49.910;6.792;2023-10-19T06:58:51;96715.94;;;15.56;100.00
26807;BME280;14380;49.910;6.792;2023-10-19T07:01:17;96716.94;;;15.55;100.00
26807;BME280;14380;49.910;6.792;2023-10-19T07:03:48;96725.91;;;15.54;100.00
26807;BME280;14380;49.910;6.792;2023-10-19T07:06:18;96723.78;;;15.66;100.00
26807;BME280;14380;49.910;6.792;2023-10-19T07:08:45;96721.91;;;15.67;100.00
26807;BME280;14380;49.910;6.792;2023-10-19T07:11:11;96710.94;;;15.78;100.00
26807;BME280;14380;49.910;6.792;2023-10-19T07:13:38;96709.09;;;15.95;100.00
26807;BME280;14380;49.910;6.792;2023-10-19T07:16:11;96712.63;;;15.54;100.00
26807;BME280;14380;49.910;6.792;2023-10-19T07:18:38;96723.91;;;15.81;100.00
26807;BME280;14380;49.910;6.792;2023-10-19T07:21:04;96717.22;;;16.02;100.00
26807;BME280;14380;49.910;6.792;2023-10-19T07:23:34;96721.88;;;16.16;100.00
26807;BME280;14380;49.910;6.792;2023-10-19T07:26:03;96730.25;;;15.88;100.00
26807;BME280;14380;49.910;6.792;2023-10-19T07:28:32;96724.56;;;15.91;100.00
26807;BME280;14380;49.910;6.792;2023-10-19T07:30:58;96715.75;;;16.08;100.00
26807;BME280;14380;49.910;6.792;2023-10-19T07:33:26;96714.47;;;16.35;100.00
26807;BME280;14380;49.910;6.792;2023-10-19T07:35:53;96713.34;;;16.21;100.00
26807;BME280;14380;49.910;6.792;2023-10-19T07:38:21;96711.38;;;16.15;100.00
26807;BME280;14380;49.910;6.792;2023-10-19T07:40:48;96718.19;;;16.57;100.00
26807;BME280;14380;49.910;6.792;2023-10-19T07:43:18;96724.94;;;16.45;100.00
26807;BME280;14380;49.910;6.792;2023-10-19T07:45:45;96716.50;;;16.64;100.00
26807;BME280;14380;49.910;6.792;2023-10-19T07:48:12;96713.94;;;16.48;100.00
26807;BME280;14380;49.910;6.792;2023-10-19T07:50:40;96701.09;;;16.52;100.00
26807;BME280;14380;49.910;6.792;2023-10-19T07:53:08;96705.88;;;16.25;100.00
26807;BME280;14380;49.910;6.792;2023-10-19T07:55:35;96696.69;;;16.27;100.00
26807;BME280;14380;49.910;6.792;2023-10-19T07:58:03;96699.97;;;16.38;100.00
26807;BME280;14380;49.910;6.792;2023-10-19T08:00:31;96697.44;;;16.44;100.00
26807;BME280;14380;49.910;6.792;2023-10-19T08:02:59;96685.38;;;16.65;100.00
26807;BME280;14380;49.910;6.792;2023-10-19T08:05:26;96682.66;;;16.73;100.00
26807;BME280;14380;49.910;6.792;2023-10-19T08:07:54;96679.63;;;16.53;100.00
26807;BME280;14380;49.910;6.792;2023-10-19T08:10:22;96680.47;;;16.77;100.00
26807;BME280;14380;49.910;6.792;2023-10-19T08:12:50;96684.75;;;16.86;100.00
26807;BME280;14380;49.910;6.792;2023-10-19T08:15:18;96682.47;;;17.06;100.00
26807;BME280;14380;49.910;6.792;2023-10-19T08:17:47;96684.22;;;17.37;100.00
26807;BME280;14380;49.910;6.792;2023-10-19T08:20:14;96678.94;;;17.52;100.00
26807;BME280;14380;49.910;6.792;2023-10-19T08:22:48;96679.59;;;17.69;100.00
26807;BME280;14380;49.910;6.792;2023-10-19T08:25:16;96677.88;;;17.77;100.00
26807;BME280;14380;49.910;6.792;2023-10-19T08:27:43;96674.09;;;17.56;100.00
26807;BME280;14380;49.910;6.792;2023-10-19T08:30:11;96675.22;;;17.92;100.00
26807;BME280;14380;49.910;6.792;2023-10-19T08:32:38;96682.13;;;17.86;100.00
26807;BME280;14380;49.910;6.792;2023-10-19T08:35:06;96676.75;;;17.56;100.00
26807;BME280;14380;49.910;6.792;2023-10-19T08:37:32;96676.28;;;17.67;100.00
26807;BME280;14380;49.910;6.792;2023-10-19T08:39:59;96664.25;;;17.72;100.00
26807;BME280;14380;49.910;6.792;2023-10-19T08:42:28;96662.50;;;17.79;100.00
26807;BME280;14380;49.910;6.792;2023-10-19T08:44:56;96673.44;;;17.54;100.00
26807;BME280;14380;49.910;6.792;2023-10-19T08:47:24;96665.81;;;17.81;100.00
26807;BME280;14380;49.910;6.792;2023-10-19T08:49:51;96651.09;;;17.70;100.00
26807;BME280;14380;49.910;6.792;2023-10-19T08:52:20;96653.34;;;18.11;100.00
26807;BME280;14380;49.910;6.792;2023-10-19T08:54:48;96643.22;;;18.07;100.00
26807;BME280;14380;49.910;6.792;2023-10-19T08:57:15;96635.81;;;17.94;100.00
26807;BME280;14380;49.910;6.792;2023-10-19T08:59:43;96647.97;;;17.96;100.00
26807;BME280;14380;49.910;6.792;2023-10-19T09:02:12;96646.50;;;18.39;100.00
26807;BME280;14380;49.910;6.792;2023-10-19T09:04:42;96647.91;;;18.20;100.00
26807;BME280;14380;49.910;6.792;2023-10-19T09:07:09;96650.38;;;18.21;100.00
26807;BME280;14380;49.910;6.792;2023-10-19T09:09:36;96643.06;;;18.45;100.00
26807;BME280;14380;49.910;6.792;2023-10-19T09:12:06;96643.31;;;18.65;100.00
26807;BME280;14380;49.910;6.792;2023-10-19T09:14:33;96644.47;;;18.41;100.00
26807;BME280;14380;49.910;6.792;2023-10-19T09:17:02;96649.06;;;18.47;100.00
26807;BME280;14380;49.910;6.792;2023-10-19T09:19:39;96651.19;;;18.37;100.00
26807;BME280;14380;49.910;6.792;2023-10-19T09:22:07;96630.25;;;18.40;100.00
26807;BME280;14380;49.910;6.792;2023-10-19T09:24:42;96640.84;;;18.49;100.00
26807;BME280;14380;49.910;6.792;2023-10-19T09:27:10;96629.94;;;18.65;100.00
26807;BME280;14380;49.910;6.792;2023-10-19T09:29:37;96627.97;;;18.74;100.00
26807;BME280;14380;49.910;6.792;2023-10-19T09:32:07;96617.44;;;18.51;100.00
26807;BME280;14380;49.910;6.792;2023-10-19T09:34:34;96621.28;;;18.63;100.00
26807;BME280;14380;49.910;6.792;2023-10-19T09:37:01;96623.84;;;18.56;100.00
26807;BME280;14380;49.910;6.792;2023-10-19T09:39:28;96622.28;;;18.62;100.00
26807;BME280;14380;49.910;6.792;2023-10-19T09:42:00;96624.22;;;18.68;100.00
26807;BME280;14380;49.910;6.792;2023-10-19T09:44:33;96618.88;;;18.68;100.00
26807;BME280;14380;49.910;6.792;2023-10-19T09:47:02;96628.13;;;18.51;100.00
26807;BME280;14380;49.910;6.792;2023-10-19T09:49:31;96630.84;;;18.72;100.00
26807;BME280;14380;49.910;6.792;2023-10-19T09:51:58;96635.50;;;18.49;100.00
26807;BME280;14380;49.910;6.792;2023-10-19T09:54:28;96624.75;;;18.42;100.00
26807;BME280;14380;49.910;6.792;2023-10-19T09:57:03;96628.31;;;18.49;100.00
26807;BME280;14380;49.910;6.792;2023-10-19T09:59:38;96615.78;;;18.50;100.00
26807;BME280;14380;49.910;6.792;2023-10-19T10:02:07;96619.06;;;18.88;100.00
26807;BME280;14380;49.910;6.792;2023-10-19T10:04:40;96613.78;;;18.95;100.00
26807;BME280;14380;49.910;6.792;2023-10-19T10:07:07;96613.63;;;18.97;100.00
26807;BME280;14380;49.910;6.792;2023-10-19T10:09:36;96604.16;;;19.23;100.00
26807;BME280;14380;49.910;6.792;2023-10-19T10:12:18;96602.25;;;19.38;100.00
26807;BME280;14380;49.910;6.792;2023-10-19T10:14:56;96607.81;;;19.43;100.00
26807;BME280;14380;49.910;6.792;2023-10-19T10:17:24;96608.78;;;19.36;100.00
26807;BME280;14380;49.910;6.792;2023-10-19T10:19:55;96600.09;;;19.27;100.00
26807;BME280;14380;49.910;6.792;2023-10-19T10:22:25;96602.94;;;19.54;100.00
26807;BME280;14380;49.910;6.792;2023-10-19T10:24:55;96598.22;;;19.56;100.00
26807;BME280;14380;49.910;6.792;2023-10-19T10:27:22;96605.75;;;19.74;100.00
26807;BME280;14380;49.910;6.792;2023-10-19T10:29:56;96624.88;;;19.99;100.00
26807;BME280;14380;49.910;6.792;2023-10-19T10:32:42;96621.81;;;20.09;100.00
26807;BME280;14380;49.910;6.792;2023-10-19T10:38:12;96634.81;;;20.12;100.00
26807;BME280;14380;49.910;6.792;2023-10-19T10:40:42;96635.66;;;20.06;100.00
26807;BME280;14380;49.910;6.792;2023-10-19T10:43:08;96625.03;;;20.26;100.00
26807;BME280;14380;49.910;6.792;2023-10-19T10:45:35;96629.56;;;19.90;100.00
26807;BME280;14380;49.910;6.792;2023-10-19T10:48:02;96624.25;;;20.39;100.00
26807;BME280;14380;49.910;6.792;2023-10-19T10:50:30;96613.19;;;20.07;100.00
26807;BME280;14380;49.910;6.792;2023-10-19T10:52:57;96607.41;;;20.10;100.00
26807;BME280;14380;49.910;6.792;2023-10-19T10:55:25;96609.03;;;19.98;100.00
26807;BME280;14380;49.910;6.792;2023-10-19T10:57:54;96604.19;;;19.86;100.00
26807;BME280;14380;49.910;6.792;2023-10-19T11:00:20;96607.25;;;20.18;100.00
26807;BME280;14380;49.910;6.792;2023-10-19T11:02:59;96608.72;;;20.21;100.00
26807;BME280;14380;49.910;6.792;2023-10-19T11:05:26;96602.81;;;19.97;100.00
26807;BME280;14380;49.910;6.792;2023-10-19T11:08:05;96603.53;;;20.13;100.00
26807;BME280;14380;49.910;6.792;2023-10-19T11:10:33;96596.75;;;19.82;100.00
26807;BME280;14380;49.910;6.792;2023-10-19T11:13:01;96595.34;;;19.86;100.00
26807;BME280;14380;49.910;6.792;2023-10-19T11:15:27;96597.03;;;19.30;100.00
26807;BME280;14380;49.910;6.792;2023-10-19T11:17:54;96596.00;;;19.31;100.00
26807;BME280;14380;49.910;6.792;2023-10-19T11:20:21;96586.97;;;19.32;100.00
26807;BME280;14380;49.910;6.792;2023-10-19T11:22:49;96598.53;;;19.39;100.00
26807;BME280;14380;49.910;6.792;2023-10-19T11:25:21;96594.59;;;19.35;100.00
26807;BME280;14380;49.910;6.792;2023-10-19T11:27:48;96608.44;;;19.17;100.00
26807;BME280;14380;49.910;6.792;2023-10-19T11:30:22;96604.56;;;19.20;100.00
26807;BME280;14380;49.910;6.792;2023-10-19T11:32:49;96594.88;;;19.19;100.00
26807;BME280;14380;49.910;6.792;2023-10-19T11:35:18;96598.59;;;19.24;100.00
26807;BME280;14380;49.910;6.792;2023-10-19T11:37:48;96591.91;;;19.07;100.00
26807;BME280;14380;49.910;6.792;2023-10-19T11:40:15;96590.00;;;19.00;100.00
26807;BME280;14380;49.910;6.792;2023-10-19T11:42:43;96581.38;;;19.05;100.00
26807;BME280;14380;49.910;6.792;2023-10-19T11:45:10;96592.84;;;18.99;100.00
26807;BME280;14380;49.910;6.792;2023-10-19T11:47:37;96582.44;;;18.89;100.00
26807;BME280;14380;49.910;6.792;2023-10-19T11:50:04;96586.53;;;18.85;100.00
26807;BME280;14380;49.910;6.792;2023-10-19T11:52:31;96585.44;;;18.79;100.00
26807;BME280;14380;49.910;6.792;2023-10-19T11:54:58;96584.94;;;18.91;100.00
26807;BME280;14380;49.910;6.792;2023-10-19T11:57:25;96578.13;;;18.66;100.00
26807;BME280;14380;49.910;6.792;2023-10-19T11:59:53;96578.06;;;18.81;100.00
26807;BME280;14380;49.910;6.792;2023-10-19T12:02:19;96568.50;;;18.72;100.00
26807;BME280;14380;49.910;6.792;2023-10-19T12:04:46;96562.47;;;18.63;100.00
26807;BME280;14380;49.910;6.792;2023-10-19T12:07:12;96565.53;;;18.60;100.00
26807;BME280;14380;49.910;6.792;2023-10-19T12:09:39;96553.94;;;18.75;100.00
26807;BME280;14380;49.910;6.792;2023-10-19T12:12:06;96548.28;;;18.63;100.00
26807;BME280;14380;49.910;6.792;2023-10-19T12:14:34;96550.44;;;18.52;100.00
26807;BME280;14380;49.910;6.792;2023-10-19T12:17:02;96538.53;;;18.55;100.00
26807;BME280;14380;49.910;6.792;2023-10-19T12:19:31;96544.31;;;18.58;100.00
26807;BME280;14380;49.910;6.792;2023-10-19T12:21:59;96538.75;;;18.53;100.00
26807;BME280;14380;49.910;6.792;2023-10-19T12:24:26;96549.66;;;18.58;100.00
26807;BME280;14380;49.910;6.792;2023-10-19T12:26:54;96549.94;;;18.42;100.00
26807;BME280;14380;49.910;6.792;2023-10-19T12:29:21;96543.91;;;18.18;100.00
26807;BME280;14380;49.910;6.792;2023-10-19T12:31:48;96540.06;;;18.42;100.00
26807;BME280;14380;49.910;6.792;2023-10-19T12:34:16;96543.09;;;18.39;100.00
26807;BME280;14380;49.910;6.792;2023-10-19T12:36:42;96535.59;;;18.28;100.00
26807;BME280;14380;49.910;6.792;2023-10-19T12:39:11;96530.50;;;18.33;100.00
26807;BME280;14380;49.910;6.792;2023-10-19T12:41:59;96532.78;;;18.15;100.00
26807;BME280;14380;49.910;6.792;2023-10-19T12:44:26;96523.94;;;18.14;100.00
26807;BME280;14380;49.910;6.792;2023-10-19T12:46:54;96524.09;;;18.27;100.00
26807;BME280;14380;49.910;6.792;2023-10-19T12:49:23;96520.59;;;18.27;100.00
26807;BME280;14380;49.910;6.792;2023-10-19T12:51:52;96517.84;;;18.20;100.00
26807;BME280;14380;49.910;6.792;2023-10-19T12:54:19;96510.94;;;18.26;100.00
26807;BME280;14380;49.910;6.792;2023-10-19T12:56:46;96499.53;;;18.17;100.00
26807;BME280;14380;49.910;6.792;2023-10-19T12:59:15;96488.13;;;18.08;100.00
26807;BME280;14380;49.910;6.792;2023-10-19T13:01:43;96459.19;;;18.12;100.00